createdAt,value
2019-03-26T00:00:56.381Z,22.40
2019-03-26T00:03:27.725Z,22.30
2019-03-26T00:05:59.054Z,22.30
2019-03-26T00:08:31.667Z,22.30
2019-03-26T00:11:03.338Z,22.30
2019-03-26T00:13:34.697Z,22.30
2019-03-26T00:16:06.226Z,22.30
2019-03-26T00:18:37.942Z,22.30
2019-03-26T00:21:09.445Z,22.30
2019-03-26T00:23:40.812Z,22.20
2019-03-26T00:26:12.448Z,22.30
2019-03-26T00:28:43.866Z,22.30
2019-03-26T00:31:15.380Z,22.30
2019-03-26T00:33:46.876Z,22.30
2019-03-26T00:36:18.281Z,22.20
2019-03-26T00:38:49.809Z,22.30
2019-03-26T00:41:21.265Z,22.20
2019-03-26T00:43:52.614Z,22.30
2019-03-26T00:46:24.056Z,22.30
2019-03-26T00:48:55.532Z,22.30
2019-03-26T00:51:27.200Z,22.30
2019-03-26T00:53:58.704Z,22.30
2019-03-26T00:56:30.119Z,22.30
2019-03-26T00:59:01.452Z,22.30
2019-03-26T01:01:32.757Z,22.20
2019-03-26T01:04:04.081Z,22.20
2019-03-26T01:06:35.484Z,22.20
2019-03-26T01:09:08.820Z,22.20
2019-03-26T01:11:40.321Z,22.20
2019-03-26T01:14:11.560Z,22.20
2019-03-26T01:16:43.041Z,22.20
2019-03-26T01:19:14.568Z,22.20
2019-03-26T01:21:45.920Z,22.20
2019-03-26T01:24:17.183Z,22.10
2019-03-26T01:26:48.575Z,22.10
2019-03-26T01:29:19.897Z,22.10
2019-03-26T01:31:51.344Z,22.10
2019-03-26T01:34:22.668Z,22.10
2019-03-26T01:36:54.063Z,22.10
2019-03-26T01:39:25.341Z,22.10
2019-03-26T01:41:56.639Z,22.10
2019-03-26T01:44:28.031Z,22.10
2019-03-26T01:46:59.446Z,22.10
2019-03-26T01:49:30.798Z,22.20
2019-03-26T01:52:02.152Z,22.20
2019-03-26T01:54:33.470Z,22.10
2019-03-26T01:57:04.724Z,22.10
2019-03-26T01:59:36.049Z,22.10
2019-03-26T02:02:07.322Z,22.10
2019-03-26T02:04:38.770Z,22.10
2019-03-26T02:07:10.122Z,22.10
2019-03-26T02:09:41.448Z,22.10
2019-03-26T02:12:12.836Z,22.10
2019-03-26T02:14:44.339Z,22.10
2019-03-26T02:17:15.747Z,22.10
2019-03-26T02:19:47.296Z,22.10
2019-03-26T02:22:18.657Z,22.10
2019-03-26T02:24:50.085Z,22.10
2019-03-26T02:27:21.383Z,22.10
2019-03-26T02:29:52.852Z,22.10
2019-03-26T02:32:24.254Z,22.10
2019-03-26T02:34:55.560Z,22.10
2019-03-26T02:37:27.028Z,22.10
2019-03-26T02:39:58.363Z,22.10
2019-03-26T02:42:29.624Z,22.10
2019-03-26T02:45:01.056Z,22.10
2019-03-26T02:47:32.568Z,22.20
2019-03-26T02:50:03.895Z,22.10
2019-03-26T02:52:35.270Z,22.20
2019-03-26T02:55:06.657Z,22.10
2019-03-26T02:57:38.388Z,22.10
2019-03-26T03:00:09.899Z,22.10
2019-03-26T03:02:41.392Z,22.10
2019-03-26T03:05:12.866Z,22.10
2019-03-26T03:07:44.017Z,22.10
2019-03-26T03:10:15.631Z,22.00
2019-03-26T03:12:47.009Z,22.00
2019-03-26T03:15:18.373Z,22.00
2019-03-26T03:17:49.794Z,22.00
2019-03-26T03:20:21.222Z,22.00
2019-03-26T03:22:52.532Z,22.00
2019-03-26T03:25:23.930Z,22.00
2019-03-26T03:27:55.419Z,22.10
2019-03-26T03:30:26.808Z,22.10
2019-03-26T03:32:58.133Z,22.10
2019-03-26T03:35:29.557Z,22.10
2019-03-26T03:38:00.861Z,22.10
2019-03-26T03:40:32.352Z,22.10
2019-03-26T03:43:03.624Z,22.10
2019-03-26T03:45:34.983Z,22.10
2019-03-26T03:48:06.397Z,22.10
2019-03-26T03:50:37.840Z,22.10
2019-03-26T03:53:09.180Z,22.10
2019-03-26T03:55:40.482Z,22.10
2019-03-26T03:58:11.846Z,22.10
2019-03-26T04:00:43.878Z,22.10
2019-03-26T04:03:15.178Z,22.10
2019-03-26T04:05:46.551Z,22.10
2019-03-26T04:08:17.752Z,22.10
2019-03-26T04:10:49.100Z,22.00
2019-03-26T04:13:20.418Z,22.00
2019-03-26T04:15:51.810Z,21.90
2019-03-26T04:18:23.130Z,21.90
2019-03-26T04:20:54.578Z,22.00
2019-03-26T04:23:26.574Z,22.00
2019-03-26T04:25:59.757Z,22.00
2019-03-26T04:28:31.223Z,22.00
2019-03-26T04:31:04.071Z,22.00
2019-03-26T04:33:35.465Z,22.00
2019-03-26T04:36:24.161Z,22.00
2019-03-26T04:38:40.823Z,22.00
2019-03-26T04:41:12.205Z,22.00
2019-03-26T04:43:43.557Z,22.00
2019-03-26T04:46:14.936Z,22.00
2019-03-26T04:48:46.411Z,22.00
2019-03-26T04:51:17.847Z,22.00
2019-03-26T04:53:49.244Z,22.00
2019-03-26T04:56:20.689Z,22.00
2019-03-26T04:58:52.375Z,22.00
2019-03-26T05:01:23.571Z,22.00
2019-03-26T05:03:55.301Z,22.00
2019-03-26T05:06:37.373Z,21.90
2019-03-26T05:09:00.370Z,21.90
2019-03-26T05:11:32.049Z,21.90
2019-03-26T05:14:03.654Z,21.90
2019-03-26T05:16:35.139Z,22.00
2019-03-26T05:19:06.476Z,22.00
2019-03-26T05:21:38.008Z,22.00
2019-03-26T05:24:09.485Z,22.00
2019-03-26T05:26:41.050Z,22.00
2019-03-26T05:29:12.597Z,22.00
2019-03-26T05:31:44.009Z,22.00
2019-03-26T05:34:15.388Z,22.00
2019-03-26T05:36:51.551Z,21.90
2019-03-26T05:39:20.101Z,22.00
2019-03-26T05:41:51.697Z,21.90
2019-03-26T05:44:23.076Z,21.90
2019-03-26T05:46:54.521Z,21.90
2019-03-26T05:49:28.147Z,21.90
2019-03-26T05:51:59.529Z,21.90
2019-03-26T05:54:31.211Z,21.90
2019-03-26T05:57:02.569Z,21.90
2019-03-26T05:59:34.269Z,21.90
2019-03-26T06:02:14.218Z,21.80
2019-03-26T06:04:38.796Z,21.80
2019-03-26T06:07:10.164Z,21.80
2019-03-26T06:09:41.919Z,21.90
2019-03-26T06:12:13.309Z,21.90
2019-03-26T06:14:44.628Z,21.90
2019-03-26T06:17:16.000Z,21.90
2019-03-26T06:19:47.472Z,22.00
2019-03-26T06:22:18.935Z,22.10
2019-03-26T06:24:50.560Z,22.10
2019-03-26T06:27:22.593Z,22.10
2019-03-26T06:29:54.142Z,22.20
2019-03-26T06:32:25.773Z,22.20
2019-03-26T06:34:57.259Z,22.30
2019-03-26T06:37:28.830Z,22.20
2019-03-26T06:40:00.370Z,22.20
2019-03-26T06:42:31.750Z,22.30
2019-03-26T06:45:03.402Z,22.20
2019-03-26T06:47:34.937Z,22.20
2019-03-26T06:50:07.323Z,22.20
2019-03-26T06:52:38.705Z,22.20
2019-03-26T06:55:10.315Z,22.20
2019-03-26T06:57:41.822Z,22.10
2019-03-26T07:00:13.276Z,22.10
2019-03-26T07:02:44.713Z,22.10
2019-03-26T07:05:16.140Z,22.10
2019-03-26T07:07:47.630Z,22.10
2019-03-26T07:10:23.639Z,22.10
2019-03-26T07:12:54.945Z,22.10
2019-03-26T07:15:26.273Z,22.10
2019-03-26T07:17:57.801Z,22.00
2019-03-26T07:20:29.400Z,22.00
2019-03-26T07:23:01.073Z,22.00
2019-03-26T07:25:32.366Z,22.00
2019-03-26T07:28:03.856Z,21.90
2019-03-26T07:30:43.445Z,21.90
2019-03-26T07:33:15.517Z,21.90
2019-03-26T07:35:47.004Z,21.90
2019-03-26T07:38:18.587Z,21.90
2019-03-26T07:40:50.276Z,21.90
2019-03-26T07:43:21.769Z,21.90
2019-03-26T07:45:53.198Z,21.90
2019-03-26T07:48:25.506Z,21.90
2019-03-26T07:50:57.135Z,21.90
2019-03-26T07:53:28.726Z,21.90
2019-03-26T07:56:00.170Z,21.80
2019-03-26T07:58:33.243Z,21.90
2019-03-26T08:01:05.133Z,21.90
2019-03-26T08:03:36.822Z,21.90
2019-03-26T08:06:08.618Z,21.90
2019-03-26T08:08:40.831Z,21.90
2019-03-26T08:11:13.303Z,21.90
2019-03-26T08:13:45.240Z,21.90
2019-03-26T08:16:16.776Z,21.90
2019-03-26T08:18:48.324Z,21.90
2019-03-26T08:21:19.697Z,21.80
2019-03-26T08:23:51.221Z,21.90
2019-03-26T08:26:22.921Z,21.80
2019-03-26T08:28:54.250Z,21.80
2019-03-26T08:31:25.685Z,21.80
2019-03-26T08:33:56.882Z,21.80
2019-03-26T08:36:30.642Z,21.80
2019-03-26T08:39:02.128Z,21.80
2019-03-26T08:41:33.779Z,21.80
2019-03-26T08:44:05.285Z,21.80
2019-03-26T08:46:36.721Z,21.90
2019-03-26T08:49:08.348Z,21.90
2019-03-26T08:51:39.813Z,21.90
2019-03-26T08:54:11.341Z,21.90
2019-03-26T08:56:42.705Z,21.90
2019-03-26T08:59:13.906Z,21.90
2019-03-26T09:01:45.313Z,21.90
2019-03-26T09:04:16.552Z,21.80
2019-03-26T09:06:47.692Z,21.90
2019-03-26T09:09:18.957Z,21.80
2019-03-26T09:11:50.330Z,21.80
2019-03-26T09:14:21.897Z,21.90
2019-03-26T09:16:53.529Z,21.80
2019-03-26T09:19:24.848Z,21.80
2019-03-26T09:21:56.410Z,21.80
2019-03-26T09:24:27.989Z,21.80
2019-03-26T09:26:59.450Z,21.80
2019-03-26T09:29:30.934Z,21.80
2019-03-26T09:32:02.350Z,21.80
2019-03-26T09:34:33.822Z,21.80
2019-03-26T09:37:05.227Z,21.80
2019-03-26T09:39:38.331Z,21.80
2019-03-26T09:42:10.257Z,21.80
2019-03-26T09:44:41.725Z,21.80
2019-03-26T09:47:16.388Z,21.80
2019-03-26T09:49:46.355Z,21.80
2019-03-26T09:52:17.900Z,21.80
2019-03-26T09:54:49.433Z,21.80
2019-03-26T09:57:20.645Z,21.80
2019-03-26T09:59:51.914Z,21.80
2019-03-26T10:02:23.456Z,21.80
2019-03-26T10:04:54.933Z,21.80
2019-03-26T10:07:26.356Z,21.80
2019-03-26T10:09:57.982Z,21.80
2019-03-26T10:12:29.495Z,21.80
2019-03-26T10:15:01.024Z,21.80
2019-03-26T10:17:32.571Z,21.80
2019-03-26T10:20:03.982Z,21.80
2019-03-26T10:22:35.493Z,21.80
2019-03-26T10:25:10.631Z,21.80
2019-03-26T10:27:40.832Z,21.80
2019-03-26T10:30:12.418Z,21.80
2019-03-26T10:32:43.935Z,21.80
2019-03-26T10:35:15.572Z,21.80
2019-03-26T10:37:47.194Z,21.80
2019-03-26T10:40:31.126Z,21.80
2019-03-26T10:43:02.679Z,21.80
2019-03-26T10:45:34.222Z,21.80
2019-03-26T10:48:05.837Z,21.80
2019-03-26T10:50:37.318Z,21.80
2019-03-26T10:53:08.777Z,21.80
2019-03-26T10:55:40.225Z,21.80
2019-03-26T10:58:11.640Z,21.80
2019-03-26T11:00:42.929Z,21.80
2019-03-26T11:03:14.533Z,21.80
2019-03-26T11:05:45.889Z,21.80
2019-03-26T11:08:17.708Z,21.80
2019-03-26T11:10:49.039Z,21.80
2019-03-26T11:13:20.423Z,21.80
2019-03-26T11:15:51.888Z,21.80
2019-03-26T11:18:23.331Z,21.80
2019-03-26T11:21:02.467Z,21.80
2019-03-26T11:23:27.937Z,21.80
2019-03-26T11:25:59.258Z,21.80
2019-03-26T11:28:30.726Z,21.80
2019-03-26T11:31:02.139Z,21.80
2019-03-26T11:33:33.554Z,21.80
2019-03-26T11:36:04.989Z,21.80
2019-03-26T11:38:36.420Z,21.80
2019-03-26T11:41:07.923Z,21.80
2019-03-26T11:43:39.392Z,21.80
2019-03-26T11:46:10.848Z,21.80
2019-03-26T11:48:42.548Z,21.80
2019-03-26T11:51:13.962Z,21.80
2019-03-26T11:53:45.379Z,21.80
2019-03-26T11:56:16.970Z,21.80
2019-03-26T11:58:48.524Z,21.80
2019-03-26T12:01:19.875Z,21.80
2019-03-26T12:03:51.530Z,21.80
2019-03-26T12:06:22.985Z,21.80
2019-03-26T12:08:54.392Z,21.80
2019-03-26T12:11:25.840Z,21.80
2019-03-26T12:13:57.287Z,21.80
2019-03-26T12:16:28.819Z,21.80
2019-03-26T12:19:00.408Z,21.80
2019-03-26T12:21:31.842Z,21.80
2019-03-26T12:24:03.116Z,21.80
2019-03-26T12:26:34.370Z,21.80
2019-03-26T12:29:05.973Z,21.80
2019-03-26T12:31:37.471Z,21.80
2019-03-26T12:34:08.889Z,21.80
2019-03-26T12:36:40.546Z,21.80
2019-03-26T12:39:12.657Z,21.80
2019-03-26T12:41:44.745Z,21.80
2019-03-26T12:44:16.495Z,21.80
2019-03-26T12:46:47.844Z,21.80
2019-03-26T12:49:19.639Z,21.80
2019-03-26T12:51:51.539Z,21.80
2019-03-26T12:54:23.058Z,21.80
2019-03-26T12:56:54.632Z,21.80
2019-03-26T12:59:26.758Z,21.70
2019-03-26T13:01:58.346Z,21.70
2019-03-26T13:04:29.782Z,21.70
2019-03-26T13:07:01.162Z,21.70
2019-03-26T13:09:32.739Z,21.70
2019-03-26T13:12:04.268Z,21.70
2019-03-26T13:14:35.832Z,21.80
2019-03-26T13:17:07.113Z,21.80
2019-03-26T13:19:38.677Z,21.80
2019-03-26T13:22:10.414Z,21.80
2019-03-26T13:24:41.835Z,21.80
2019-03-26T13:27:13.795Z,21.80
2019-03-26T13:29:45.238Z,21.80
2019-03-26T13:32:16.903Z,21.90
2019-03-26T13:34:48.707Z,21.80
2019-03-26T13:37:21.853Z,21.90
2019-03-26T13:39:53.651Z,21.80
2019-03-26T13:42:25.439Z,21.80
2019-03-26T13:44:56.958Z,21.80
2019-03-26T13:47:28.432Z,21.80
2019-03-26T13:49:59.987Z,21.80
2019-03-26T13:52:31.861Z,21.80
2019-03-26T13:55:03.691Z,21.80
2019-03-26T13:57:35.204Z,21.80
2019-03-26T14:00:07.261Z,21.80
2019-03-26T14:02:39.364Z,21.80
2019-03-26T14:05:23.962Z,21.80
2019-03-26T14:07:55.853Z,21.80
2019-03-26T14:10:40.199Z,21.90
2019-03-26T14:13:01.218Z,21.90
2019-03-26T14:15:32.789Z,21.90
2019-03-26T14:18:04.625Z,21.90
2019-03-26T14:20:36.292Z,21.80
2019-03-26T14:23:09.442Z,21.90
2019-03-26T14:25:41.029Z,21.80
2019-03-26T14:28:12.708Z,21.80
2019-03-26T14:30:45.856Z,21.80
2019-03-26T14:33:17.428Z,21.80
2019-03-26T14:35:49.566Z,21.80
2019-03-26T14:38:21.322Z,21.80
2019-03-26T14:40:55.752Z,21.80
2019-03-26T14:43:28.522Z,21.80
2019-03-26T14:46:01.563Z,21.80
2019-03-26T14:48:34.112Z,21.80
2019-03-26T14:51:05.542Z,21.80
2019-03-26T14:53:37.355Z,21.80
2019-03-26T14:56:09.219Z,21.80
2019-03-26T14:58:40.869Z,21.80
2019-03-26T15:01:12.690Z,21.70
2019-03-26T15:03:44.278Z,21.70
2019-03-26T15:06:15.506Z,21.70
2019-03-26T15:08:46.892Z,21.70
2019-03-26T15:11:19.839Z,21.70
2019-03-26T15:13:52.443Z,21.70
2019-03-26T15:16:24.177Z,21.70
2019-03-26T15:18:55.940Z,21.70
2019-03-26T15:21:27.817Z,21.70
2019-03-26T15:24:00.237Z,21.70
2019-03-26T15:26:32.397Z,21.70
2019-03-26T15:29:04.833Z,21.70
2019-03-26T15:31:36.392Z,21.70
2019-03-26T15:34:07.941Z,21.70
2019-03-26T15:36:39.549Z,21.70
2019-03-26T15:39:12.777Z,21.70
2019-03-26T15:41:45.179Z,21.70
2019-03-26T15:44:17.326Z,21.70
2019-03-26T15:46:50.318Z,21.70
2019-03-26T15:49:22.235Z,21.70
2019-03-26T15:51:54.037Z,21.70
2019-03-26T15:54:25.473Z,21.70
2019-03-26T15:56:57.104Z,21.70
2019-03-26T15:59:29.034Z,21.70
2019-03-26T16:02:01.290Z,21.70
2019-03-26T16:04:33.453Z,21.70
2019-03-26T16:07:05.239Z,21.70
2019-03-26T16:09:36.780Z,21.70
2019-03-26T16:12:08.322Z,21.70
2019-03-26T16:14:39.988Z,21.70
2019-03-26T16:17:11.942Z,21.70
2019-03-26T16:19:43.884Z,21.70
2019-03-26T16:22:17.864Z,21.70
2019-03-26T16:24:48.844Z,21.70
2019-03-26T16:27:20.635Z,21.70
2019-03-26T16:29:52.109Z,21.70
2019-03-26T16:32:23.610Z,21.70
2019-03-26T16:34:55.093Z,21.60
2019-03-26T16:37:26.668Z,21.60
2019-03-26T16:40:01.469Z,21.70
2019-03-26T16:42:33.094Z,21.70
2019-03-26T16:45:04.695Z,21.70
2019-03-26T16:47:39.627Z,21.70
2019-03-26T16:50:11.683Z,21.70
2019-03-26T16:52:43.173Z,21.60
2019-03-26T16:55:14.655Z,21.70
2019-03-26T16:57:46.240Z,21.70
2019-03-26T17:00:28.158Z,21.70
2019-03-26T17:03:01.024Z,21.70
2019-03-26T17:05:33.391Z,21.70
2019-03-26T17:08:05.782Z,21.70
2019-03-26T17:10:37.308Z,21.70
2019-03-26T17:13:08.871Z,21.70
2019-03-26T17:15:40.793Z,21.70
2019-03-26T17:18:12.372Z,21.70
2019-03-26T17:20:43.993Z,21.70
2019-03-26T17:23:18.298Z,21.70
2019-03-26T17:25:49.821Z,21.70
2019-03-26T17:28:21.644Z,21.70
2019-03-26T17:30:53.292Z,21.60
2019-03-26T17:33:24.797Z,21.70
2019-03-26T17:35:56.362Z,21.60
2019-03-26T17:38:27.690Z,21.60
2019-03-26T17:40:58.926Z,21.70
2019-03-26T17:43:30.411Z,21.70
2019-03-26T17:46:01.990Z,21.70
2019-03-26T17:48:33.388Z,21.70
2019-03-26T17:51:04.864Z,21.70
2019-03-26T17:53:36.230Z,21.70
2019-03-26T17:56:07.752Z,21.70
2019-03-26T17:58:39.505Z,21.80
2019-03-26T18:01:10.952Z,21.90
2019-03-26T18:03:42.374Z,22.00
2019-03-26T18:06:13.731Z,22.00
2019-03-26T18:08:45.377Z,21.90
2019-03-26T18:11:16.945Z,21.90
2019-03-26T18:13:49.458Z,21.80
2019-03-26T18:16:21.076Z,21.80
2019-03-26T18:18:55.034Z,21.80
2019-03-26T18:21:25.749Z,21.80
2019-03-26T18:23:57.193Z,21.80
2019-03-26T18:26:28.609Z,21.80
2019-03-26T18:29:00.058Z,21.80
2019-03-26T18:31:31.547Z,21.90
2019-03-26T18:34:03.016Z,21.90
2019-03-26T18:36:34.384Z,22.00
2019-03-26T18:39:07.547Z,22.10
2019-03-26T18:41:39.143Z,22.10
2019-03-26T18:44:11.678Z,22.10
2019-03-26T18:46:43.752Z,22.10
2019-03-26T18:49:15.185Z,22.20
2019-03-26T18:51:46.639Z,22.10
2019-03-26T18:54:18.023Z,22.10
2019-03-26T18:56:49.407Z,22.20
2019-03-26T18:59:20.821Z,22.20
2019-03-26T19:01:52.237Z,22.20
2019-03-26T19:04:23.757Z,22.30
2019-03-26T19:06:55.431Z,22.30
2019-03-26T19:09:26.781Z,22.30
2019-03-26T19:11:58.523Z,22.30
2019-03-26T19:14:29.839Z,22.30
2019-03-26T19:17:02.030Z,22.40
2019-03-26T19:19:33.889Z,22.40
2019-03-26T19:22:06.142Z,22.40
2019-03-26T19:24:37.717Z,22.40
2019-03-26T19:27:10.071Z,22.40
2019-03-26T19:29:41.961Z,22.40
2019-03-26T19:32:14.274Z,22.50
2019-03-26T19:34:46.007Z,22.50
2019-03-26T19:37:21.617Z,22.50
2019-03-26T19:39:53.329Z,22.50
2019-03-26T19:42:24.833Z,22.60
2019-03-26T19:44:56.434Z,22.60
2019-03-26T19:47:27.830Z,22.50
2019-03-26T19:49:59.438Z,22.60
2019-03-26T19:52:30.990Z,22.50
2019-03-26T19:55:02.572Z,22.50
2019-03-26T19:57:33.953Z,22.50
2019-03-26T20:00:05.984Z,22.50
2019-03-26T20:02:37.487Z,22.50
2019-03-26T20:05:09.310Z,22.50
2019-03-26T20:07:40.922Z,22.50
2019-03-26T20:10:12.797Z,22.50
2019-03-26T20:12:44.759Z,22.60
2019-03-26T20:15:17.280Z,22.60
2019-03-26T20:17:49.417Z,22.60
2019-03-26T20:20:22.715Z,22.60
2019-03-26T20:22:54.546Z,22.70
2019-03-26T20:25:26.698Z,22.70
2019-03-26T20:27:58.712Z,22.70
2019-03-26T20:30:30.461Z,22.70
2019-03-26T20:33:02.305Z,22.70
2019-03-26T20:35:33.883Z,22.60
2019-03-26T20:38:05.539Z,22.60
2019-03-26T20:40:37.075Z,22.60
2019-03-26T20:43:09.468Z,22.60
2019-03-26T20:45:41.216Z,22.60
2019-03-26T20:48:12.942Z,22.60
2019-03-26T20:50:44.389Z,22.60
2019-03-26T20:53:15.807Z,22.60
2019-03-26T20:55:54.164Z,22.60
2019-03-26T20:58:20.684Z,22.60
2019-03-26T21:00:52.200Z,22.60
2019-03-26T21:03:23.926Z,22.60
2019-03-26T21:05:55.926Z,22.60
2019-03-26T21:08:27.581Z,22.60
2019-03-26T21:10:59.223Z,22.60
2019-03-26T21:13:31.202Z,22.60
2019-03-26T21:16:05.493Z,22.60
2019-03-26T21:18:38.454Z,22.50
2019-03-26T21:21:10.996Z,22.40
2019-03-26T21:23:43.825Z,22.40
2019-03-26T21:26:17.062Z,22.40
2019-03-26T21:28:49.184Z,22.30
2019-03-26T21:31:23.784Z,22.30
2019-03-26T21:33:57.531Z,22.30
2019-03-26T21:36:30.777Z,22.20
2019-03-26T21:39:04.005Z,22.20
2019-03-26T21:41:37.466Z,22.20
2019-03-26T21:44:11.121Z,22.20
2019-03-26T21:46:45.500Z,22.20
2019-03-26T21:49:18.877Z,22.20
2019-03-26T21:51:52.353Z,22.20
2019-03-26T21:54:23.839Z,22.20
2019-03-26T21:56:55.535Z,22.10
2019-03-26T21:59:27.121Z,22.10
2019-03-26T22:01:58.472Z,22.10
2019-03-26T22:04:29.949Z,22.10
2019-03-26T22:07:01.615Z,22.10
2019-03-26T22:09:33.264Z,22.10
2019-03-26T22:12:04.652Z,22.10
2019-03-26T22:14:35.897Z,22.10
2019-03-26T22:17:07.439Z,22.10
2019-03-26T22:19:42.068Z,22.10
2019-03-26T22:22:13.743Z,22.10
2019-03-26T22:24:45.467Z,22.10
2019-03-26T22:27:16.952Z,22.10
2019-03-26T22:29:48.552Z,22.10
2019-03-26T22:32:20.125Z,22.10
2019-03-26T22:34:51.650Z,22.10
2019-03-26T22:37:23.293Z,22.10
2019-03-26T22:39:54.973Z,22.00
2019-03-26T22:42:26.681Z,22.10
2019-03-26T22:44:58.218Z,22.10
2019-03-26T22:47:29.573Z,22.10
2019-03-26T22:50:00.900Z,22.00
2019-03-26T22:52:32.791Z,22.00
2019-03-26T22:55:04.537Z,22.00
2019-03-26T22:57:35.992Z,22.00
2019-03-26T23:00:11.167Z,22.00
2019-03-26T23:02:42.543Z,22.00
2019-03-26T23:05:14.468Z,21.90
2019-03-26T23:07:45.984Z,21.90
2019-03-26T23:10:17.621Z,22.00
2019-03-26T23:12:49.248Z,21.90
2019-03-26T23:15:23.028Z,22.00
2019-03-26T23:17:54.817Z,22.00
2019-03-26T23:20:26.185Z,22.00
2019-03-26T23:22:57.751Z,22.00
2019-03-26T23:25:29.185Z,21.90
2019-03-26T23:28:00.777Z,22.00
2019-03-26T23:30:32.947Z,21.90
2019-03-26T23:33:04.507Z,21.90
2019-03-26T23:35:35.967Z,21.90
2019-03-26T23:38:07.440Z,21.90
2019-03-26T23:40:40.237Z,21.90
2019-03-26T23:43:12.544Z,21.90
2019-03-26T23:45:44.726Z,21.90
2019-03-26T23:48:17.140Z,21.90
2019-03-26T23:50:49.945Z,21.90
2019-03-26T23:53:23.069Z,21.90
2019-03-26T23:55:55.865Z,21.90
2019-03-26T23:58:28.808Z,21.90
